sensor_id;sensor_type;location;lat;lon;timestamp;temperature;humidity
7163;DHT22;3623;47.098;15.446;2022-07-29T00:01:02;20.20;99.90
7163;DHT22;3623;47.098;15.446;2022-07-29T00:03:29;20.20;99.90
7163;DHT22;3623;47.098;15.446;2022-07-29T00:05:56;20.10;99.90
7163;DHT22;3623;47.098;15.446;2022-07-29T00:08:23;20.20;99.90
7163;DHT22;3623;47.098;15.446;2022-07-29T00:10:52;20.20;99.90
7163;DHT22;3623;47.098;15.446;2022-07-29T00:13:19;20.20;99.90
7163;DHT22;3623;47.098;15.446;2022-07-29T00:15:48;20.20;99.90
7163;DHT22;3623;47.098;15.446;2022-07-29T00:18:15;20.20;99.90
7163;DHT22;3623;47.098;15.446;2022-07-29T00:20:45;20.20;99.90
7163;DHT22;3623;47.098;15.446;2022-07-29T00:23:13;20.20;99.90
7163;DHT22;3623;47.098;15.446;2022-07-29T00:25:50;20.10;99.90
7163;DHT22;3623;47.098;15.446;2022-07-29T00:28:28;20.10;99.90
7163;DHT22;3623;47.098;15.446;2022-07-29T00:30:59;20.10;99.90
7163;DHT22;3623;47.098;15.446;2022-07-29T00:33:27;20.00;99.90
7163;DHT22;3623;47.098;15.446;2022-07-29T00:35:55;20.00;99.90
7163;DHT22;3623;47.098;15.446;2022-07-29T00:38:21;19.90;99.90
7163;DHT22;3623;47.098;15.446;2022-07-29T00:40:48;19.90;99.90
7163;DHT22;3623;47.098;15.446;2022-07-29T00:43:17;19.90;99.90
7163;DHT22;3623;47.098;15.446;2022-07-29T00:45:45;19.90;99.90
7163;DHT22;3623;47.098;15.446;2022-07-29T00:48:13;19.90;99.90
7163;DHT22;3623;47.098;15.446;2022-07-29T00:50:40;19.90;99.90
7163;DHT22;3623;47.098;15.446;2022-07-29T00:53:07;19.90;99.90
7163;DHT22;3623;47.098;15.446;2022-07-29T00:55:35;19.90;99.90
7163;DHT22;3623;47.098;15.446;2022-07-29T00:58:02;19.80;99.90
7163;DHT22;3623;47.098;15.446;2022-07-29T01:00:30;19.80;99.90
7163;DHT22;3623;47.098;15.446;2022-07-29T01:02:59;19.80;99.90
7163;DHT22;3623;47.098;15.446;2022-07-29T01:05:27;19.80;99.90
7163;DHT22;3623;47.098;15.446;2022-07-29T01:07:57;19.80;99.90
7163;DHT22;3623;47.098;15.446;2022-07-29T01:10:24;19.80;99.90
7163;DHT22;3623;47.098;15.446;2022-07-29T01:12:54;19.80;99.90
7163;DHT22;3623;47.098;15.446;2022-07-29T01:15:22;19.80;99.90
7163;DHT22;3623;47.098;15.446;2022-07-29T01:17:54;19.80;99.90
7163;DHT22;3623;47.098;15.446;2022-07-29T01:20:28;19.80;99.90
7163;DHT22;3623;47.098;15.446;2022-07-29T01:23:25;19.80;99.90
7163;DHT22;3623;47.098;15.446;2022-07-29T01:26:09;19.80;99.90
7163;DHT22;3623;47.098;15.446;2022-07-29T01:29:05;19.70;99.90
7163;DHT22;3623;47.098;15.446;2022-07-29T01:31:39;19.80;99.90
7163;DHT22;3623;47.098;15.446;2022-07-29T01:34:11;19.80;99.90
7163;DHT22;3623;47.098;15.446;2022-07-29T01:36:43;19.80;99.90
7163;DHT22;3623;47.098;15.446;2022-07-29T01:39:21;19.70;99.90
7163;DHT22;3623;47.098;15.446;2022-07-29T01:41:55;19.70;99.90
7163;DHT22;3623;47.098;15.446;2022-07-29T01:44:30;19.70;99.90
7163;DHT22;3623;47.098;15.446;2022-07-29T01:47:04;19.60;99.90
7163;DHT22;3623;47.098;15.446;2022-07-29T01:49:39;19.60;99.90
7163;DHT22;3623;47.098;15.446;2022-07-29T01:52:21;19.90;99.90
7163;DHT22;3623;47.098;15.446;2022-07-29T01:54:54;19.50;99.90
7163;DHT22;3623;47.098;15.446;2022-07-29T01:57:26;19.50;99.90
7163;DHT22;3623;47.098;15.446;2022-07-29T01:59:56;19.40;99.90
7163;DHT22;3623;47.098;15.446;2022-07-29T02:02:24;19.40;99.90
7163;DHT22;3623;47.098;15.446;2022-07-29T02:04:53;19.40;99.90
7163;DHT22;3623;47.098;15.446;2022-07-29T02:07:22;19.30;99.90
7163;DHT22;3623;47.098;15.446;2022-07-29T02:09:51;19.40;99.90
7163;DHT22;3623;47.098;15.446;2022-07-29T02:12:19;19.40;99.90
7163;DHT22;3623;47.098;15.446;2022-07-29T02:14:49;19.40;99.90
7163;DHT22;3623;47.098;15.446;2022-07-29T02:17:22;19.30;99.90
7163;DHT22;3623;47.098;15.446;2022-07-29T02:19:52;19.40;99.90
7163;DHT22;3623;47.098;15.446;2022-07-29T02:22:21;19.30;99.90
7163;DHT22;3623;47.098;15.446;2022-07-29T02:24:50;19.30;99.90
7163;DHT22;3623;47.098;15.446;2022-07-29T02:27:19;19.20;99.90
7163;DHT22;3623;47.098;15.446;2022-07-29T02:29:50;19.20;99.90
7163;DHT22;3623;47.098;15.446;2022-07-29T02:32:21;19.10;99.90
7163;DHT22;3623;47.098;15.446;2022-07-29T02:34:50;19.10;99.90
7163;DHT22;3623;47.098;15.446;2022-07-29T02:37:18;19.10;99.90
7163;DHT22;3623;47.098;15.446;2022-07-29T02:39:48;19.00;99.90
7163;DHT22;3623;47.098;15.446;2022-07-29T02:42:16;19.00;99.90
7163;DHT22;3623;47.098;15.446;2022-07-29T02:44:44;18.90;99.90
7163;DHT22;3623;47.098;15.446;2022-07-29T02:47:16;18.90;99.90
7163;DHT22;3623;47.098;15.446;2022-07-29T02:49:53;18.80;99.90
7163;DHT22;3623;47.098;15.446;2022-07-29T02:52:26;18.80;99.90
7163;DHT22;3623;47.098;15.446;2022-07-29T02:54:55;18.80;99.90
7163;DHT22;3623;47.098;15.446;2022-07-29T02:57:30;18.70;99.90
7163;DHT22;3623;47.098;15.446;2022-07-29T03:00:03;18.70;99.90
7163;DHT22;3623;47.098;15.446;2022-07-29T03:02:34;18.70;99.90
7163;DHT22;3623;47.098;15.446;2022-07-29T03:05:05;18.70;99.90
7163;DHT22;3623;47.098;15.446;2022-07-29T03:07:34;18.70;99.90
7163;DHT22;3623;47.098;15.446;2022-07-29T03:10:04;18.70;99.90
7163;DHT22;3623;47.098;15.446;2022-07-29T03:12:33;18.70;99.90
7163;DHT22;3623;47.098;15.446;2022-07-29T03:15:00;18.70;99.90
7163;DHT22;3623;47.098;15.446;2022-07-29T03:17:30;18.70;99.90
7163;DHT22;3623;47.098;15.446;2022-07-29T03:19:58;18.60;99.90
7163;DHT22;3623;47.098;15.446;2022-07-29T03:22:27;18.60;99.90
7163;DHT22;3623;47.098;15.446;2022-07-29T03:24:54;18.60;99.90
7163;DHT22;3623;47.098;15.446;2022-07-29T03:27:21;18.60;99.90
7163;DHT22;3623;47.098;15.446;2022-07-29T03:29:51;18.60;99.90
7163;DHT22;3623;47.098;15.446;2022-07-29T03:32:18;18.50;99.90
7163;DHT22;3623;47.098;15.446;2022-07-29T03:34:45;18.50;99.90
7163;DHT22;3623;47.098;15.446;2022-07-29T03:37:12;18.50;99.90
7163;DHT22;3623;47.098;15.446;2022-07-29T03:39:42;18.40;99.90
7163;DHT22;3623;47.098;15.446;2022-07-29T03:42:12;18.40;99.90
7163;DHT22;3623;47.098;15.446;2022-07-29T03:44:42;18.40;99.90
7163;DHT22;3623;47.098;15.446;2022-07-29T03:47:10;18.40;99.90
7163;DHT22;3623;47.098;15.446;2022-07-29T03:49:40;18.40;99.90
7163;DHT22;3623;47.098;15.446;2022-07-29T03:52:08;18.30;99.90
7163;DHT22;3623;47.098;15.446;2022-07-29T03:54:35;18.30;99.90
7163;DHT22;3623;47.098;15.446;2022-07-29T03:57:05;18.30;99.90
7163;DHT22;3623;47.098;15.446;2022-07-29T03:59:34;18.30;99.90
7163;DHT22;3623;47.098;15.446;2022-07-29T04:02:03;18.30;99.90
7163;DHT22;3623;47.098;15.446;2022-07-29T04:04:32;18.30;99.90
7163;DHT22;3623;47.098;15.446;2022-07-29T04:07:00;18.30;99.90
7163;DHT22;3623;47.098;15.446;2022-07-29T04:09:28;18.30;99.90
7163;DHT22;3623;47.098;15.446;2022-07-29T04:11:55;18.20;99.90
7163;DHT22;3623;47.098;15.446;2022-07-29T04:14:23;18.30;99.90
7163;DHT22;3623;47.098;15.446;2022-07-29T04:16:51;18.20;99.90
7163;DHT22;3623;47.098;15.446;2022-07-29T04:19:25;18.20;99.90
7163;DHT22;3623;47.098;15.446;2022-07-29T04:22:01;18.20;99.90
7163;DHT22;3623;47.098;15.446;2022-07-29T04:24:28;18.20;99.90
7163;DHT22;3623;47.098;15.446;2022-07-29T04:26:56;18.20;99.90
7163;DHT22;3623;47.098;15.446;2022-07-29T04:29:25;18.30;99.90
7163;DHT22;3623;47.098;15.446;2022-07-29T04:31:52;18.30;99.90
7163;DHT22;3623;47.098;15.446;2022-07-29T04:34:19;18.30;99.90
7163;DHT22;3623;47.098;15.446;2022-07-29T04:36:50;18.30;99.90
7163;DHT22;3623;47.098;15.446;2022-07-29T04:39:17;18.30;99.90
7163;DHT22;3623;47.098;15.446;2022-07-29T04:41:45;18.30;99.90
7163;DHT22;3623;47.098;15.446;2022-07-29T04:44:15;18.30;99.90
7163;DHT22;3623;47.098;15.446;2022-07-29T04:46:44;18.30;99.90
7163;DHT22;3623;47.098;15.446;2022-07-29T04:49:11;18.30;99.90
7163;DHT22;3623;47.098;15.446;2022-07-29T04:51:39;18.40;99.90
7163;DHT22;3623;47.098;15.446;2022-07-29T04:54:06;18.40;99.90
7163;DHT22;3623;47.098;15.446;2022-07-29T04:56:33;18.50;99.90
7163;DHT22;3623;47.098;15.446;2022-07-29T04:59:01;18.50;99.90
7163;DHT22;3623;47.098;15.446;2022-07-29T05:01:28;18.50;99.90
7163;DHT22;3623;47.098;15.446;2022-07-29T05:03:57;18.60;99.90
7163;DHT22;3623;47.098;15.446;2022-07-29T05:06:24;18.60;99.90
7163;DHT22;3623;47.098;15.446;2022-07-29T05:09:04;18.60;99.90
7163;DHT22;3623;47.098;15.446;2022-07-29T05:11:31;18.70;99.90
7163;DHT22;3623;47.098;15.446;2022-07-29T05:13:58;18.70;99.90
7163;DHT22;3623;47.098;15.446;2022-07-29T05:16:25;18.80;99.90
7163;DHT22;3623;47.098;15.446;2022-07-29T05:18:52;18.80;99.90
7163;DHT22;3623;47.098;15.446;2022-07-29T05:21:21;18.90;99.90
7163;DHT22;3623;47.098;15.446;2022-07-29T05:23:48;19.00;99.90
7163;DHT22;3623;47.098;15.446;2022-07-29T05:26:15;19.00;99.90
7163;DHT22;3623;47.098;15.446;2022-07-29T05:28:43;19.00;99.90
7163;DHT22;3623;47.098;15.446;2022-07-29T05:31:10;19.10;99.90
7163;DHT22;3623;47.098;15.446;2022-07-29T05:33:37;19.10;99.90
7163;DHT22;3623;47.098;15.446;2022-07-29T05:36:04;19.10;99.90
7163;DHT22;3623;47.098;15.446;2022-07-29T05:38:34;19.20;99.90
7163;DHT22;3623;47.098;15.446;2022-07-29T05:41:02;19.30;99.90
7163;DHT22;3623;47.098;15.446;2022-07-29T05:43:29;19.30;99.90
7163;DHT22;3623;47.098;15.446;2022-07-29T05:45:56;19.40;99.90
7163;DHT22;3623;47.098;15.446;2022-07-29T05:48:24;19.50;99.90
7163;DHT22;3623;47.098;15.446;2022-07-29T05:50:52;19.60;99.90
7163;DHT22;3623;47.098;15.446;2022-07-29T05:53:30;19.60;99.90
7163;DHT22;3623;47.098;15.446;2022-07-29T05:56:03;19.70;99.90
7163;DHT22;3623;47.098;15.446;2022-07-29T05:58:30;19.70;99.90
7163;DHT22;3623;47.098;15.446;2022-07-29T06:00:57;19.80;99.90
7163;DHT22;3623;47.098;15.446;2022-07-29T06:03:24;19.80;99.90
7163;DHT22;3623;47.098;15.446;2022-07-29T06:06:01;19.80;99.90
7163;DHT22;3623;47.098;15.446;2022-07-29T06:08:28;20.00;99.90
7163;DHT22;3623;47.098;15.446;2022-07-29T06:11:00;20.00;99.90
7163;DHT22;3623;47.098;15.446;2022-07-29T06:13:28;20.00;99.90
7163;DHT22;3623;47.098;15.446;2022-07-29T06:15:55;20.10;99.90
7163;DHT22;3623;47.098;15.446;2022-07-29T06:18:22;20.10;99.90
7163;DHT22;3623;47.098;15.446;2022-07-29T06:20:50;20.20;99.90
7163;DHT22;3623;47.098;15.446;2022-07-29T06:23:18;20.20;99.90
7163;DHT22;3623;47.098;15.446;2022-07-29T06:25:46;20.30;99.90
7163;DHT22;3623;47.098;15.446;2022-07-29T06:28:15;20.40;99.90
7163;DHT22;3623;47.098;15.446;2022-07-29T06:30:44;20.50;99.90
7163;DHT22;3623;47.098;15.446;2022-07-29T06:33:16;20.50;99.90
7163;DHT22;3623;47.098;15.446;2022-07-29T06:35:44;20.60;99.90
7163;DHT22;3623;47.098;15.446;2022-07-29T06:38:13;20.60;99.90
7163;DHT22;3623;47.098;15.446;2022-07-29T06:40:41;20.70;99.90
7163;DHT22;3623;47.098;15.446;2022-07-29T06:43:30;20.80;99.90
7163;DHT22;3623;47.098;15.446;2022-07-29T06:46:04;20.90;99.90
7163;DHT22;3623;47.098;15.446;2022-07-29T06:48:32;21.10;99.90
7163;DHT22;3623;47.098;15.446;2022-07-29T06:51:00;21.20;99.90
7163;DHT22;3623;47.098;15.446;2022-07-29T06:53:27;21.40;99.90
7163;DHT22;3623;47.098;15.446;2022-07-29T06:55:55;21.60;99.90
7163;DHT22;3623;47.098;15.446;2022-07-29T06:58:23;21.80;99.90
7163;DHT22;3623;47.098;15.446;2022-07-29T07:00:52;21.90;99.90
7163;DHT22;3623;47.098;15.446;2022-07-29T07:03:20;22.10;99.90
7163;DHT22;3623;47.098;15.446;2022-07-29T07:05:47;22.30;99.90
7163;DHT22;3623;47.098;15.446;2022-07-29T07:08:14;22.60;99.90
7163;DHT22;3623;47.098;15.446;2022-07-29T07:10:42;22.80;99.90
7163;DHT22;3623;47.098;15.446;2022-07-29T07:13:10;23.00;99.90
7163;DHT22;3623;47.098;15.446;2022-07-29T07:15:37;23.30;99.90
7163;DHT22;3623;47.098;15.446;2022-07-29T07:18:06;23.70;99.90
7163;DHT22;3623;47.098;15.446;2022-07-29T07:20:34;24.00;99.90
7163;DHT22;3623;47.098;15.446;2022-07-29T07:23:02;24.30;99.90
7163;DHT22;3623;47.098;15.446;2022-07-29T07:25:30;24.30;99.90
7163;DHT22;3623;47.098;15.446;2022-07-29T07:27:57;24.10;99.90
7163;DHT22;3623;47.098;15.446;2022-07-29T07:30:25;24.10;99.90
7163;DHT22;3623;47.098;15.446;2022-07-29T07:32:53;24.10;99.90
7163;DHT22;3623;47.098;15.446;2022-07-29T07:35:21;24.20;99.90
7163;DHT22;3623;47.098;15.446;2022-07-29T07:37:49;24.20;99.90
7163;DHT22;3623;47.098;15.446;2022-07-29T07:40:16;24.20;99.90
7163;DHT22;3623;47.098;15.446;2022-07-29T07:42:43;24.30;99.90
7163;DHT22;3623;47.098;15.446;2022-07-29T07:45:11;24.20;99.90
7163;DHT22;3623;47.098;15.446;2022-07-29T07:47:39;24.20;99.90
7163;DHT22;3623;47.098;15.446;2022-07-29T07:50:08;24.30;99.90
7163;DHT22;3623;47.098;15.446;2022-07-29T07:52:46;24.40;99.90
7163;DHT22;3623;47.098;15.446;2022-07-29T07:55:13;24.40;99.90
7163;DHT22;3623;47.098;15.446;2022-07-29T07:57:40;24.50;99.90
7163;DHT22;3623;47.098;15.446;2022-07-29T08:00:09;24.60;99.90
7163;DHT22;3623;47.098;15.446;2022-07-29T08:02:37;24.60;99.90
7163;DHT22;3623;47.098;15.446;2022-07-29T08:05:05;24.60;99.90
7163;DHT22;3623;47.098;15.446;2022-07-29T08:07:33;24.70;99.90
7163;DHT22;3623;47.098;15.446;2022-07-29T08:10:02;24.90;99.90
7163;DHT22;3623;47.098;15.446;2022-07-29T08:12:29;25.00;99.90
7163;DHT22;3623;47.098;15.446;2022-07-29T08:14:56;25.00;99.90
7163;DHT22;3623;47.098;15.446;2022-07-29T08:17:24;25.20;99.90
7163;DHT22;3623;47.098;15.446;2022-07-29T08:19:52;25.20;99.90
7163;DHT22;3623;47.098;15.446;2022-07-29T08:22:19;25.20;99.90
7163;DHT22;3623;47.098;15.446;2022-07-29T08:24:46;25.20;99.90
7163;DHT22;3623;47.098;15.446;2022-07-29T08:27:28;25.20;99.90
7163;DHT22;3623;47.098;15.446;2022-07-29T08:29:58;25.20;99.90
7163;DHT22;3623;47.098;15.446;2022-07-29T08:32:25;25.40;99.90
7163;DHT22;3623;47.098;15.446;2022-07-29T08:34:54;25.50;99.90
7163;DHT22;3623;47.098;15.446;2022-07-29T08:37:21;25.70;99.90
7163;DHT22;3623;47.098;15.446;2022-07-29T08:39:48;25.70;99.90
7163;DHT22;3623;47.098;15.446;2022-07-29T08:42:15;25.90;99.90
7163;DHT22;3623;47.098;15.446;2022-07-29T08:44:45;26.10;99.90
7163;DHT22;3623;47.098;15.446;2022-07-29T08:47:14;26.10;99.90
7163;DHT22;3623;47.098;15.446;2022-07-29T08:49:41;26.10;99.90
7163;DHT22;3623;47.098;15.446;2022-07-29T08:52:10;26.30;99.90
7163;DHT22;3623;47.098;15.446;2022-07-29T08:54:39;26.60;99.90
7163;DHT22;3623;47.098;15.446;2022-07-29T08:57:06;26.80;99.90
7163;DHT22;3623;47.098;15.446;2022-07-29T08:59:34;26.90;99.90
7163;DHT22;3623;47.098;15.446;2022-07-29T09:02:03;26.70;99.90
7163;DHT22;3623;47.098;15.446;2022-07-29T09:04:34;26.60;99.90
7163;DHT22;3623;47.098;15.446;2022-07-29T09:07:04;26.60;99.90
7163;DHT22;3623;47.098;15.446;2022-07-29T09:09:33;26.60;99.90
7163;DHT22;3623;47.098;15.446;2022-07-29T09:12:01;26.70;99.90
7163;DHT22;3623;47.098;15.446;2022-07-29T09:14:29;26.60;99.90
7163;DHT22;3623;47.098;15.446;2022-07-29T09:16:56;26.60;99.90
7163;DHT22;3623;47.098;15.446;2022-07-29T09:19:31;26.60;99.90
7163;DHT22;3623;47.098;15.446;2022-07-29T09:22:03;26.60;99.90
7163;DHT22;3623;47.098;15.446;2022-07-29T09:24:38;26.60;99.90
7163;DHT22;3623;47.098;15.446;2022-07-29T09:27:11;26.50;99.90
7163;DHT22;3623;47.098;15.446;2022-07-29T09:29:44;26.40;99.90
7163;DHT22;3623;47.098;15.446;2022-07-29T09:32:12;26.30;99.90
7163;DHT22;3623;47.098;15.446;2022-07-29T09:34:40;26.20;99.90
7163;DHT22;3623;47.098;15.446;2022-07-29T09:37:07;26.30;99.90
7163;DHT22;3623;47.098;15.446;2022-07-29T09:39:36;26.30;99.90
7163;DHT22;3623;47.098;15.446;2022-07-29T09:42:04;26.30;99.90
7163;DHT22;3623;47.098;15.446;2022-07-29T09:44:43;26.20;99.90
7163;DHT22;3623;47.098;15.446;2022-07-29T09:47:11;26.30;99.90
7163;DHT22;3623;47.098;15.446;2022-07-29T09:49:55;26.40;99.90
7163;DHT22;3623;47.098;15.446;2022-07-29T09:52:23;26.50;99.90
7163;DHT22;3623;47.098;15.446;2022-07-29T09:54:51;26.60;99.90
7163;DHT22;3623;47.098;15.446;2022-07-29T09:57:26;26.70;99.90
7163;DHT22;3623;47.098;15.446;2022-07-29T09:59:57;27.00;99.90
7163;DHT22;3623;47.098;15.446;2022-07-29T10:02:29;26.60;99.90
7163;DHT22;3623;47.098;15.446;2022-07-29T10:04:59;26.70;99.90
7163;DHT22;3623;47.098;15.446;2022-07-29T10:07:27;26.90;99.90
7163;DHT22;3623;47.098;15.446;2022-07-29T10:10:09;27.00;99.90
7163;DHT22;3623;47.098;15.446;2022-07-29T10:12:48;26.90;99.90
7163;DHT22;3623;47.098;15.446;2022-07-29T10:15:16;26.60;99.90
7163;DHT22;3623;47.098;15.446;2022-07-29T10:17:44;26.60;99.90
7163;DHT22;3623;47.098;15.446;2022-07-29T10:20:14;26.50;99.90
7163;DHT22;3623;47.098;15.446;2022-07-29T10:22:42;26.40;99.90
7163;DHT22;3623;47.098;15.446;2022-07-29T10:25:10;26.30;99.90
7163;DHT22;3623;47.098;15.446;2022-07-29T10:27:37;26.10;99.90
7163;DHT22;3623;47.098;15.446;2022-07-29T10:30:05;26.00;99.90
7163;DHT22;3623;47.098;15.446;2022-07-29T10:32:58;25.80;99.90
7163;DHT22;3623;47.098;15.446;2022-07-29T10:35:43;25.70;99.90
7163;DHT22;3623;47.098;15.446;2022-07-29T10:38:27;25.40;99.90
7163;DHT22;3623;47.098;15.446;2022-07-29T10:41:06;25.40;99.90
7163;DHT22;3623;47.098;15.446;2022-07-29T10:43:58;25.40;99.90
7163;DHT22;3623;47.098;15.446;2022-07-29T10:46:27;25.30;99.90
7163;DHT22;3623;47.098;15.446;2022-07-29T10:49:11;25.40;99.90
7163;DHT22;3623;47.098;15.446;2022-07-29T10:51:59;25.50;99.90
7163;DHT22;3623;47.098;15.446;2022-07-29T10:54:44;25.50;99.90
7163;DHT22;3623;47.098;15.446;2022-07-29T10:57:30;25.70;99.90
7163;DHT22;3623;47.098;15.446;2022-07-29T11:00:31;25.80;99.90
7163;DHT22;3623;47.098;15.446;2022-07-29T11:02:59;25.90;99.90
7163;DHT22;3623;47.098;15.446;2022-07-29T11:05:26;26.10;99.90
7163;DHT22;3623;47.098;15.446;2022-07-29T11:08:18;26.30;99.90
7163;DHT22;3623;47.098;15.446;2022-07-29T11:10:47;26.80;99.90
7163;DHT22;3623;47.098;15.446;2022-07-29T11:13:45;27.10;99.90
7163;DHT22;3623;47.098;15.446;2022-07-29T11:16:13;27.40;99.90
7163;DHT22;3623;47.098;15.446;2022-07-29T11:21:42;27.80;99.90
7163;DHT22;3623;47.098;15.446;2022-07-29T11:24:14;28.10;99.90
7163;DHT22;3623;47.098;15.446;2022-07-29T11:26:42;28.20;99.90
7163;DHT22;3623;47.098;15.446;2022-07-29T11:29:19;28.50;99.90
7163;DHT22;3623;47.098;15.446;2022-07-29T11:31:49;28.80;99.90
7163;DHT22;3623;47.098;15.446;2022-07-29T11:34:22;28.70;96.90
7163;DHT22;3623;47.098;15.446;2022-07-29T11:37:15;29.60;98.10
7163;DHT22;3623;47.098;15.446;2022-07-29T11:39:46;30.70;99.50
7163;DHT22;3623;47.098;15.446;2022-07-29T11:42:41;31.30;96.20
7163;DHT22;3623;47.098;15.446;2022-07-29T11:45:11;30.70;95.20
7163;DHT22;3623;47.098;15.446;2022-07-29T11:47:47;30.60;95.70
7163;DHT22;3623;47.098;15.446;2022-07-29T11:50:16;31.20;95.80
7163;DHT22;3623;47.098;15.446;2022-07-29T11:52:46;31.10;95.90
7163;DHT22;3623;47.098;15.446;2022-07-29T11:55:17;30.80;94.20
7163;DHT22;3623;47.098;15.446;2022-07-29T11:57:46;30.30;95.00
7163;DHT22;3623;47.098;15.446;2022-07-29T12:00:22;29.50;95.70
7163;DHT22;3623;47.098;15.446;2022-07-29T12:02:50;29.30;97.40
7163;DHT22;3623;47.098;15.446;2022-07-29T12:05:18;29.10;98.20
7163;DHT22;3623;47.098;15.446;2022-07-29T12:07:47;28.70;99.90
7163;DHT22;3623;47.098;15.446;2022-07-29T12:10:16;28.60;99.10
7163;DHT22;3623;47.098;15.446;2022-07-29T12:12:43;28.30;96.10
7163;DHT22;3623;47.098;15.446;2022-07-29T12:15:18;27.90;96.40
7163;DHT22;3623;47.098;15.446;2022-07-29T12:17:46;27.60;96.50
7163;DHT22;3623;47.098;15.446;2022-07-29T12:20:22;27.50;97.20
7163;DHT22;3623;47.098;15.446;2022-07-29T12:22:49;27.30;98.40
7163;DHT22;3623;47.098;15.446;2022-07-29T12:25:22;27.30;98.50
7163;DHT22;3623;47.098;15.446;2022-07-29T12:27:59;27.30;99.90
7163;DHT22;3623;47.098;15.446;2022-07-29T12:30:41;27.30;99.90
7163;DHT22;3623;47.098;15.446;2022-07-29T12:33:14;27.20;98.70
7163;DHT22;3623;47.098;15.446;2022-07-29T12:35:44;27.10;98.50
7163;DHT22;3623;47.098;15.446;2022-07-29T12:38:12;27.00;98.80
7163;DHT22;3623;47.098;15.446;2022-07-29T12:40:42;27.00;99.90
7163;DHT22;3623;47.098;15.446;2022-07-29T12:43:11;27.00;99.90
7163;DHT22;3623;47.098;15.446;2022-07-29T12:45:40;27.20;99.10
7163;DHT22;3623;47.098;15.446;2022-07-29T12:48:08;27.30;98.10
7163;DHT22;3623;47.098;15.446;2022-07-29T12:50:36;27.40;97.00
7163;DHT22;3623;47.098;15.446;2022-07-29T12:53:12;27.60;99.90
7163;DHT22;3623;47.098;15.446;2022-07-29T12:55:45;28.00;99.90
7163;DHT22;3623;47.098;15.446;2022-07-29T12:58:25;28.00;98.30
7163;DHT22;3623;47.098;15.446;2022-07-29T13:01:00;28.10;99.90
7163;DHT22;3623;47.098;15.446;2022-07-29T13:03:27;28.20;99.90
7163;DHT22;3623;47.098;15.446;2022-07-29T13:05:55;28.20;99.90
7163;DHT22;3623;47.098;15.446;2022-07-29T13:08:22;28.30;98.80
7163;DHT22;3623;47.098;15.446;2022-07-29T13:10:51;28.20;98.50
7163;DHT22;3623;47.098;15.446;2022-07-29T13:13:18;27.90;98.60
7163;DHT22;3623;47.098;15.446;2022-07-29T13:15:45;27.60;97.90
7163;DHT22;3623;47.098;15.446;2022-07-29T13:18:31;27.50;99.40
7163;DHT22;3623;47.098;15.446;2022-07-29T13:21:10;27.20;97.20
7163;DHT22;3623;47.098;15.446;2022-07-29T13:23:38;27.20;98.40
7163;DHT22;3623;47.098;15.446;2022-07-29T13:26:07;27.10;99.90
7163;DHT22;3623;47.098;15.446;2022-07-29T13:28:35;27.10;99.90
7163;DHT22;3623;47.098;15.446;2022-07-29T13:31:02;27.10;99.00
7163;DHT22;3623;47.098;15.446;2022-07-29T13:33:30;27.30;99.90
7163;DHT22;3623;47.098;15.446;2022-07-29T13:35:57;27.70;99.90
7163;DHT22;3623;47.098;15.446;2022-07-29T13:38:24;28.30;99.30
7163;DHT22;3623;47.098;15.446;2022-07-29T13:40:52;28.90;98.40
7163;DHT22;3623;47.098;15.446;2022-07-29T13:43:21;29.20;96.70
7163;DHT22;3623;47.098;15.446;2022-07-29T13:45:48;29.40;96.60
7163;DHT22;3623;47.098;15.446;2022-07-29T13:48:15;29.20;95.10
7163;DHT22;3623;47.098;15.446;2022-07-29T13:50:43;29.40;96.80
7163;DHT22;3623;47.098;15.446;2022-07-29T13:53:11;30.30;97.10
7163;DHT22;3623;47.098;15.446;2022-07-29T13:55:38;31.40;94.60
7163;DHT22;3623;47.098;15.446;2022-07-29T13:58:06;32.20;92.20
7163;DHT22;3623;47.098;15.446;2022-07-29T14:00:35;31.80;92.70
7163;DHT22;3623;47.098;15.446;2022-07-29T14:03:02;31.30;92.80
7163;DHT22;3623;47.098;15.446;2022-07-29T14:05:29;31.00;93.10
7163;DHT22;3623;47.098;15.446;2022-07-29T14:07:56;30.90;93.90
7163;DHT22;3623;47.098;15.446;2022-07-29T14:10:24;30.80;92.40
7163;DHT22;3623;47.098;15.446;2022-07-29T14:12:51;30.40;93.50
7163;DHT22;3623;47.098;15.446;2022-07-29T14:15:18;30.10;93.60
7163;DHT22;3623;47.098;15.446;2022-07-29T14:17:47;29.90;93.40
7163;DHT22;3623;47.098;15.446;2022-07-29T14:20:14;30.00;94.90
7163;DHT22;3623;47.098;15.446;2022-07-29T14:22:42;30.00;94.90
7163;DHT22;3623;47.098;15.446;2022-07-29T14:25:09;29.80;94.50
7163;DHT22;3623;47.098;15.446;2022-07-29T14:27:36;29.90;96.70
7163;DHT22;3623;47.098;15.446;2022-07-29T14:30:04;30.10;94.60
7163;DHT22;3623;47.098;15.446;2022-07-29T14:32:31;30.50;92.30
7163;DHT22;3623;47.098;15.446;2022-07-29T14:35:00;30.30;92.90
7163;DHT22;3623;47.098;15.446;2022-07-29T14:37:27;30.60;93.90
7163;DHT22;3623;47.098;15.446;2022-07-29T14:39:56;30.20;93.00
7163;DHT22;3623;47.098;15.446;2022-07-29T14:42:25;29.90;94.00
7163;DHT22;3623;47.098;15.446;2022-07-29T14:44:52;29.70;92.40
7163;DHT22;3623;47.098;15.446;2022-07-29T14:47:19;29.30;95.50
7163;DHT22;3623;47.098;15.446;2022-07-29T14:49:47;29.30;95.10
7163;DHT22;3623;47.098;15.446;2022-07-29T14:52:16;29.20;94.30
7163;DHT22;3623;47.098;15.446;2022-07-29T14:54:43;29.10;95.50
7163;DHT22;3623;47.098;15.446;2022-07-29T14:57:11;29.10;95.10
7163;DHT22;3623;47.098;15.446;2022-07-29T14:59:38;29.00;95.00
7163;DHT22;3623;47.098;15.446;2022-07-29T15:02:05;28.90;94.10
7163;DHT22;3623;47.098;15.446;2022-07-29T15:04:32;28.80;94.90
7163;DHT22;3623;47.098;15.446;2022-07-29T15:07:00;28.90;95.90
7163;DHT22;3623;47.098;15.446;2022-07-29T15:09:28;28.90;96.00
7163;DHT22;3623;47.098;15.446;2022-07-29T15:11:56;29.00;97.20
7163;DHT22;3623;47.098;15.446;2022-07-29T15:14:23;29.30;95.50
7163;DHT22;3623;47.098;15.446;2022-07-29T15:16:50;29.40;94.90
7163;DHT22;3623;47.098;15.446;2022-07-29T15:19:17;29.40;94.40
7163;DHT22;3623;47.098;15.446;2022-07-29T15:21:44;29.40;95.90
7163;DHT22;3623;47.098;15.446;2022-07-29T15:24:11;29.30;95.00
7163;DHT22;3623;47.098;15.446;2022-07-29T15:26:40;29.20;94.20
7163;DHT22;3623;47.098;15.446;2022-07-29T15:29:08;29.20;94.00
7163;DHT22;3623;47.098;15.446;2022-07-29T15:31:35;29.00;94.40
7163;DHT22;3623;47.098;15.446;2022-07-29T15:34:02;29.00;94.30
7163;DHT22;3623;47.098;15.446;2022-07-29T15:36:30;29.00;96.20
7163;DHT22;3623;47.098;15.446;2022-07-29T15:38:57;28.80;95.40
7163;DHT22;3623;47.098;15.446;2022-07-29T15:41:24;28.80;95.60
7163;DHT22;3623;47.098;15.446;2022-07-29T15:43:53;29.00;95.10
7163;DHT22;3623;47.098;15.446;2022-07-29T15:46:20;29.30;94.60
7163;DHT22;3623;47.098;15.446;2022-07-29T15:49:05;29.30;94.00
7163;DHT22;3623;47.098;15.446;2022-07-29T15:51:33;29.30;94.20
7163;DHT22;3623;47.098;15.446;2022-07-29T15:54:01;29.40;95.30
7163;DHT22;3623;47.098;15.446;2022-07-29T15:56:29;29.40;93.70
7163;DHT22;3623;47.098;15.446;2022-07-29T15:58:58;29.40;93.60
7163;DHT22;3623;47.098;15.446;2022-07-29T16:01:25;29.20;94.40
7163;DHT22;3623;47.098;15.446;2022-07-29T16:03:52;29.00;95.60
7163;DHT22;3623;47.098;15.446;2022-07-29T16:06:20;28.70;94.50